createdAt,value
2017-10-29T00:00:54.669Z,999.88
2017-10-29T00:02:56.498Z,999.94
2017-10-29T00:04:58.276Z,999.95
2017-10-29T00:06:59.804Z,999.87
2017-10-29T00:09:01.386Z,999.76
2017-10-29T00:11:03.126Z,999.73
2017-10-29T00:13:04.644Z,999.67
2017-10-29T00:15:47.345Z,999.86
2017-10-29T00:17:49.131Z,999.78
2017-10-29T00:19:50.548Z,999.84
2017-10-29T00:21:51.984Z,999.85
2017-10-29T00:23:53.398Z,999.86
2017-10-29T00:25:54.835Z,999.77
2017-10-29T00:27:56.246Z,999.76
2017-10-29T00:29:57.666Z,999.61
2017-10-29T00:31:59.072Z,999.73
2017-10-29T00:34:00.495Z,999.63
2017-10-29T00:36:02.099Z,999.46
2017-10-29T00:38:03.554Z,999.56
2017-10-29T00:40:05.013Z,999.30
2017-10-29T00:42:06.420Z,999.32
2017-10-29T00:44:07.857Z,999.38
2017-10-29T00:46:09.814Z,999.21
2017-10-29T00:48:52.250Z,999.14
2017-10-29T00:50:53.645Z,999.13
2017-10-29T00:52:55.067Z,999.11
2017-10-29T00:54:56.476Z,999.09
2017-10-29T00:56:57.954Z,999.10
2017-10-29T00:58:59.916Z,999.16
2017-10-29T01:01:01.333Z,999.07
2017-10-29T01:03:44.404Z,999.07
2017-10-29T01:05:46.204Z,999.13
2017-10-29T01:07:47.617Z,998.97
2017-10-29T01:09:49.025Z,998.90
2017-10-29T01:11:51.033Z,998.95
2017-10-29T01:13:52.813Z,998.81
2017-10-29T01:15:54.265Z,998.76
2017-10-29T01:17:55.684Z,998.76
2017-10-29T01:19:57.094Z,998.67
2017-10-29T01:21:58.566Z,998.50
2017-10-29T01:24:00.426Z,998.61
2017-10-29T01:26:01.888Z,998.72
2017-10-29T01:28:03.426Z,998.77
2017-10-29T01:30:05.341Z,998.69
2017-10-29T01:32:06.816Z,998.59
2017-10-29T01:34:08.319Z,998.52
2017-10-29T01:36:09.877Z,998.54
2017-10-29T01:38:11.703Z,998.69
2017-10-29T01:40:13.362Z,998.64
2017-10-29T01:42:14.913Z,998.68
2017-10-29T01:44:16.660Z,998.58
2017-10-29T01:46:18.420Z,998.48
2017-10-29T01:48:19.928Z,998.38
2017-10-29T01:51:01.586Z,998.37
2017-10-29T01:53:03.185Z,998.36
2017-10-29T01:55:04.600Z,998.35
2017-10-29T01:57:06.369Z,998.22
2017-10-29T01:59:08.579Z,998.35
2017-10-29T02:01:10.157Z,998.29
2017-10-29T02:03:11.933Z,998.46
2017-10-29T02:05:13.704Z,998.16
2017-10-29T02:07:57.127Z,998.20
2017-10-29T02:09:58.521Z,998.03
2017-10-29T02:11:59.925Z,997.98
2017-10-29T02:14:01.335Z,998.04
2017-10-29T02:16:02.752Z,998.09
2017-10-29T02:18:04.167Z,998.27
2017-10-29T02:20:05.592Z,998.19
2017-10-29T02:22:06.994Z,998.28
2017-10-29T02:24:08.869Z,998.18
2017-10-29T02:26:51.465Z,998.24
2017-10-29T02:28:52.884Z,998.36
2017-10-29T02:30:54.309Z,998.49
2017-10-29T02:32:55.729Z,998.30
2017-10-29T02:34:57.547Z,998.23
2017-10-29T02:36:59.149Z,998.18
2017-10-29T02:39:41.778Z,998.43
2017-10-29T02:41:43.615Z,998.34
2017-10-29T02:43:45.567Z,998.35
2017-10-29T02:45:46.980Z,998.34
2017-10-29T02:47:48.390Z,998.37
2017-10-29T02:49:49.812Z,998.42
2017-10-29T02:51:51.219Z,998.41
2017-10-29T02:54:34.301Z,998.55
2017-10-29T02:56:35.761Z,998.84
2017-10-29T02:59:18.435Z,999.03
2017-10-29T03:01:20.234Z,999.43
2017-10-29T03:03:21.649Z,999.11
2017-10-29T03:05:23.419Z,999.27
2017-10-29T03:07:25.797Z,999.50
2017-10-29T03:09:27.369Z,999.36
2017-10-29T03:11:28.895Z,999.29
2017-10-29T03:13:30.312Z,999.39
2017-10-29T03:16:12.714Z,999.36
2017-10-29T03:18:14.254Z,999.22
2017-10-29T03:20:16.768Z,999.22
2017-10-29T03:22:18.179Z,999.25
2017-10-29T03:24:19.806Z,999.30
2017-10-29T03:27:02.025Z,999.29
2017-10-29T03:29:03.552Z,999.45
2017-10-29T03:31:45.667Z,999.43
2017-10-29T03:33:47.117Z,999.39
2017-10-29T03:35:48.972Z,999.44
2017-10-29T03:37:50.750Z,999.40
2017-10-29T03:39:52.170Z,999.50
2017-10-29T03:42:35.605Z,999.54
2017-10-29T03:44:37.535Z,999.39
2017-10-29T03:47:20.371Z,999.56
2017-10-29T03:49:22.092Z,999.48
2017-10-29T03:51:23.459Z,999.50
2017-10-29T03:53:25.052Z,999.61
2017-10-29T03:55:26.509Z,999.51
2017-10-29T03:58:08.936Z,999.59
2017-10-29T04:00:11.112Z,999.66
2017-10-29T04:02:13.339Z,999.68
2017-10-29T04:04:14.948Z,999.80
2017-10-29T04:06:16.796Z,999.74
2017-10-29T04:08:18.248Z,999.74
2017-10-29T04:10:19.717Z,999.78
2017-10-29T04:12:21.331Z,999.90
2017-10-29T04:14:23.150Z,999.95
2017-10-29T04:16:24.949Z,999.90
2017-10-29T04:19:07.406Z,1000.02
2017-10-29T04:21:08.831Z,999.98
2017-10-29T04:23:10.246Z,1000.01
2017-10-29T04:25:11.661Z,999.97
2017-10-29T04:27:13.069Z,1000.15
2017-10-29T04:29:55.488Z,1000.27
2017-10-29T04:31:56.903Z,1000.14
2017-10-29T04:33:58.425Z,1000.30
2017-10-29T04:36:00.954Z,1000.31
2017-10-29T04:38:02.407Z,1000.34
2017-10-29T04:40:04.305Z,1000.50
2017-10-29T04:42:05.871Z,1000.52
2017-10-29T04:44:07.609Z,1000.68
2017-10-29T04:46:50.295Z,1000.69
2017-10-29T04:48:51.768Z,1000.62
2017-10-29T04:50:53.206Z,1000.73
2017-10-29T04:52:55.097Z,1000.74
2017-10-29T04:54:56.486Z,1000.89
2017-10-29T04:56:57.990Z,1000.91
2017-10-29T04:58:59.399Z,1000.85
2017-10-29T05:01:00.852Z,1000.91
2017-10-29T05:03:02.375Z,1000.88
2017-10-29T05:05:03.895Z,1000.91
2017-10-29T05:07:05.336Z,1000.87
2017-10-29T05:09:06.857Z,1001.13
2017-10-29T05:11:08.394Z,1001.12
2017-10-29T05:13:10.266Z,1001.10
2017-10-29T05:15:11.784Z,1001.13
2017-10-29T05:17:55.168Z,1001.15
2017-10-29T05:19:56.580Z,1001.23
2017-10-29T05:21:57.992Z,1001.24
2017-10-29T05:23:59.409Z,1001.27
2017-10-29T05:26:01.276Z,1001.49
2017-10-29T05:28:02.653Z,1001.55
2017-10-29T05:30:04.073Z,1001.84
2017-10-29T05:32:46.108Z,1001.71
2017-10-29T05:34:47.535Z,1001.79
2017-10-29T05:36:48.958Z,1001.77
2017-10-29T05:38:50.557Z,1001.79
2017-10-29T05:40:51.947Z,1001.96
2017-10-29T05:42:53.391Z,1001.90
2017-10-29T05:44:54.854Z,1002.01
2017-10-29T05:46:57.189Z,1002.06
2017-10-29T05:49:39.725Z,1002.06
2017-10-29T05:51:41.150Z,1002.32
2017-10-29T05:54:23.420Z,1002.11
2017-10-29T05:56:25.378Z,1002.12
2017-10-29T05:58:27.421Z,1002.15
2017-10-29T06:00:28.833Z,1002.19
2017-10-29T06:02:30.252Z,1002.25
2017-10-29T06:04:31.659Z,1002.37
2017-10-29T06:06:33.451Z,1002.34
2017-10-29T06:08:35.209Z,1002.40
2017-10-29T06:11:17.503Z,1002.58
2017-10-29T06:13:20.106Z,1002.57
2017-10-29T06:15:21.386Z,1002.59
2017-10-29T06:17:22.865Z,1002.68
2017-10-29T06:19:24.377Z,1002.74
2017-10-29T06:22:06.773Z,1002.78
2017-10-29T06:24:08.215Z,1002.92
2017-10-29T06:26:09.698Z,1002.92
2017-10-29T06:28:11.097Z,1002.93
2017-10-29T06:30:12.512Z,1002.99
2017-10-29T06:32:14.013Z,1003.00
2017-10-29T06:34:15.399Z,1003.08
2017-10-29T06:36:57.790Z,1003.24
2017-10-29T06:38:59.202Z,1003.29
2017-10-29T06:41:00.616Z,1003.26
2017-10-29T06:43:02.036Z,1003.24
2017-10-29T06:45:03.452Z,1003.34
2017-10-29T06:47:04.946Z,1003.34
2017-10-29T06:49:07.251Z,1003.32
2017-10-29T06:51:09.150Z,1003.40
2017-10-29T06:53:10.563Z,1003.49
2017-10-29T06:55:11.971Z,1003.57
2017-10-29T06:57:13.400Z,1003.64
2017-10-29T06:59:14.833Z,1003.68
2017-10-29T07:01:16.537Z,1003.80
2017-10-29T07:03:18.393Z,1003.90
2017-10-29T07:05:20.532Z,1003.96
2017-10-29T07:08:02.951Z,1004.01
2017-10-29T07:10:04.367Z,1004.12
2017-10-29T07:12:05.789Z,1003.98
2017-10-29T07:14:07.364Z,1004.17
2017-10-29T07:16:08.999Z,1004.13
2017-10-29T07:18:10.348Z,1004.61
2017-10-29T07:20:11.764Z,1004.27
2017-10-29T07:22:13.215Z,1004.27
2017-10-29T07:24:55.817Z,1004.37
2017-10-29T07:26:57.233Z,1004.36
2017-10-29T07:28:58.662Z,1004.52
2017-10-29T07:31:00.180Z,1004.57
2017-10-29T07:33:01.827Z,1004.53
2017-10-29T07:35:03.240Z,1004.62
2017-10-29T07:37:04.714Z,1004.72
2017-10-29T07:39:06.761Z,1004.73
2017-10-29T07:41:08.510Z,1004.78
2017-10-29T07:43:10.012Z,1004.83
2017-10-29T07:45:11.579Z,1004.84
2017-10-29T07:47:13.131Z,1004.87
2017-10-29T07:49:14.573Z,1004.88
2017-10-29T07:51:16.216Z,1004.91
2017-10-29T07:53:17.814Z,1004.97
2017-10-29T07:56:00.216Z,1005.08
2017-10-29T07:58:01.634Z,1005.08
2017-10-29T08:00:03.053Z,1005.19
2017-10-29T08:02:04.563Z,1005.23
2017-10-29T08:04:05.989Z,1005.22
2017-10-29T08:06:07.401Z,1005.39
2017-10-29T08:08:08.821Z,1005.35
2017-10-29T08:10:10.243Z,1005.44
2017-10-29T08:12:11.703Z,1005.41
2017-10-29T08:14:13.231Z,1005.39
2017-10-29T08:16:14.959Z,1005.46
2017-10-29T08:18:16.420Z,1005.55
2017-10-29T08:20:18.096Z,1005.48
2017-10-29T08:22:19.871Z,1005.53
2017-10-29T08:24:21.643Z,1005.49
2017-10-29T08:26:23.245Z,1005.59
2017-10-29T08:28:24.993Z,1005.60
2017-10-29T08:30:26.769Z,1005.59
2017-10-29T08:32:28.214Z,1005.75
2017-10-29T08:34:29.786Z,1005.67
2017-10-29T08:36:31.302Z,1005.63
2017-10-29T08:39:13.711Z,1005.81
2017-10-29T08:41:15.135Z,1005.81
2017-10-29T08:43:16.555Z,1005.93
2017-10-29T08:45:17.974Z,1006.03
2017-10-29T08:47:19.397Z,1006.05
2017-10-29T08:49:20.817Z,1006.00
2017-10-29T08:51:22.234Z,1006.02
2017-10-29T08:53:23.657Z,1006.05
2017-10-29T08:55:25.124Z,1005.99
2017-10-29T08:57:26.550Z,1006.07
2017-10-29T08:59:28.066Z,1006.05
2017-10-29T09:01:29.542Z,1006.21
2017-10-29T09:03:31.105Z,1006.22
2017-10-29T09:05:32.650Z,1006.33
2017-10-29T09:07:34.177Z,1006.33
2017-10-29T09:09:35.717Z,1006.39
2017-10-29T09:11:37.230Z,1006.49
2017-10-29T09:13:38.771Z,1006.46
2017-10-29T09:16:21.201Z,1006.61
2017-10-29T09:18:22.617Z,1006.62
2017-10-29T09:20:24.038Z,1006.79
2017-10-29T09:22:25.479Z,1006.89
2017-10-29T09:25:07.904Z,1006.99
2017-10-29T09:27:09.356Z,1007.17
2017-10-29T09:29:10.773Z,1006.94
2017-10-29T09:31:12.188Z,1006.87
2017-10-29T09:33:13.611Z,1007.05
2017-10-29T09:35:15.027Z,1006.89
2017-10-29T09:37:16.441Z,1006.93
2017-10-29T09:39:17.860Z,1007.05
2017-10-29T09:42:00.262Z,1007.09
2017-10-29T09:44:01.689Z,1007.17
2017-10-29T09:46:44.062Z,1007.23
2017-10-29T09:48:45.497Z,1007.26
2017-10-29T09:50:46.914Z,1007.33
2017-10-29T09:52:48.328Z,1007.34
2017-10-29T09:54:49.771Z,1007.44
2017-10-29T09:56:51.194Z,1007.55
2017-10-29T09:58:52.674Z,1007.36
2017-10-29T10:00:54.098Z,1007.51
2017-10-29T10:03:36.523Z,1007.55
2017-10-29T10:05:37.952Z,1007.69
2017-10-29T10:07:39.438Z,1007.72
2017-10-29T10:09:40.859Z,1007.76
2017-10-29T10:11:42.286Z,1007.82
2017-10-29T10:14:24.684Z,1007.91
2017-10-29T10:16:26.103Z,1007.91
2017-10-29T10:18:27.526Z,1007.93
2017-10-29T10:20:28.959Z,1008.01
2017-10-29T10:22:30.387Z,1007.90
2017-10-29T10:24:31.790Z,1008.04
2017-10-29T10:26:33.260Z,1007.97
2017-10-29T10:28:34.684Z,1008.14
2017-10-29T10:31:17.127Z,1008.10
2017-10-29T10:33:18.536Z,1008.16
2017-10-29T10:35:19.957Z,1008.09
2017-10-29T10:37:21.375Z,1008.13
2017-10-29T10:39:22.836Z,1008.07
2017-10-29T10:41:24.255Z,1008.13
2017-10-29T10:43:25.802Z,1008.16
2017-10-29T10:46:09.234Z,1008.28
2017-10-29T10:48:10.654Z,1008.35
2017-10-29T10:50:53.383Z,1008.47
2017-10-29T10:52:54.797Z,1008.51
2017-10-29T10:54:56.213Z,1008.52
2017-10-29T10:56:57.633Z,1008.54
2017-10-29T10:58:59.050Z,1008.45
2017-10-29T11:01:00.489Z,1008.46
2017-10-29T11:03:01.980Z,1008.46
2017-10-29T11:05:44.394Z,1008.48
2017-10-29T11:07:45.824Z,1008.47
2017-10-29T11:09:47.232Z,1008.47
2017-10-29T11:11:48.682Z,1008.51
2017-10-29T11:13:50.102Z,1008.52
2017-10-29T11:15:51.595Z,1008.47
2017-10-29T11:18:33.999Z,1008.59
2017-10-29T11:20:35.422Z,1008.57
2017-10-29T11:22:36.845Z,1008.49
2017-10-29T11:24:38.299Z,1008.65
2017-10-29T11:26:39.715Z,1008.64
2017-10-29T11:28:41.132Z,1008.57
2017-10-29T11:30:42.562Z,1008.68
2017-10-29T11:32:43.977Z,1008.75
2017-10-29T11:34:45.399Z,1008.67
2017-10-29T11:37:27.825Z,1008.65
2017-10-29T11:39:29.245Z,1008.68
2017-10-29T11:41:30.662Z,1008.75
2017-10-29T11:43:32.078Z,1008.73
2017-10-29T11:45:33.632Z,1008.67
2017-10-29T11:47:35.200Z,1008.67
2017-10-29T11:49:36.621Z,1008.70
2017-10-29T11:51:38.054Z,1008.74
2017-10-29T11:54:20.484Z,1008.90
2017-10-29T11:56:21.889Z,1009.05
2017-10-29T11:58:23.309Z,1009.10
2017-10-29T12:00:24.767Z,1009.02
2017-10-29T12:02:26.326Z,1009.12
2017-10-29T12:04:27.831Z,1009.09
2017-10-29T12:06:29.285Z,1009.08
2017-10-29T12:08:30.743Z,1009.07
2017-10-29T12:11:13.153Z,1009.09
2017-10-29T12:13:14.568Z,1009.04
2017-10-29T12:15:15.991Z,1008.99
2017-10-29T12:17:17.412Z,1009.01
2017-10-29T12:19:18.834Z,1009.02
2017-10-29T12:21:20.436Z,1009.07
2017-10-29T12:23:22.062Z,1009.04
2017-10-29T12:25:23.489Z,1009.17
2017-10-29T12:27:24.910Z,1009.19
2017-10-29T12:29:26.410Z,1009.23
2017-10-29T12:31:27.852Z,1009.21
2017-10-29T12:33:29.361Z,1009.13
2017-10-29T12:35:30.883Z,1009.29
2017-10-29T12:37:32.366Z,1009.31
2017-10-29T12:39:33.823Z,1009.36
2017-10-29T12:42:16.237Z,1009.41
2017-10-29T12:44:17.669Z,1009.46
2017-10-29T12:46:19.092Z,1009.53
2017-10-29T12:48:20.509Z,1009.52
2017-10-29T12:50:21.928Z,1009.45
2017-10-29T12:52:23.356Z,1009.41
2017-10-29T12:54:24.765Z,1009.51
2017-10-29T12:57:07.355Z,1009.50
2017-10-29T12:59:08.769Z,1009.65
2017-10-29T13:01:10.199Z,1009.75
2017-10-29T13:03:11.639Z,1009.74
2017-10-29T13:05:13.053Z,1009.77
2017-10-29T13:07:14.514Z,1009.80
2017-10-29T13:09:15.956Z,1009.86
2017-10-29T13:11:17.380Z,1009.80
2017-10-29T13:13:18.786Z,1010.00
2017-10-29T13:15:20.222Z,1010.10
2017-10-29T13:17:21.693Z,1010.09
2017-10-29T13:19:23.140Z,1010.12
2017-10-29T13:21:24.653Z,1010.22
2017-10-29T13:23:26.176Z,1010.19
2017-10-29T13:25:27.623Z,1010.16
2017-10-29T13:27:29.122Z,1010.18
2017-10-29T13:29:30.650Z,1010.20
2017-10-29T13:31:32.223Z,1010.24
2017-10-29T13:33:33.749Z,1010.28
2017-10-29T13:35:35.241Z,1010.18
2017-10-29T13:37:36.755Z,1010.29
2017-10-29T13:39:38.251Z,1010.16
2017-10-29T13:41:39.726Z,1010.35
2017-10-29T13:44:22.119Z,1010.36
2017-10-29T13:46:23.557Z,1010.40
2017-10-29T13:48:24.961Z,1010.54
2017-10-29T13:50:26.381Z,1010.56
2017-10-29T13:52:27.801Z,1010.55
2017-10-29T13:54:29.223Z,1010.55
2017-10-29T13:56:30.663Z,1010.50
2017-10-29T13:58:32.378Z,1010.57
2017-10-29T14:00:33.821Z,1010.58
2017-10-29T14:02:35.318Z,1010.62
2017-10-29T14:04:36.864Z,1010.64
2017-10-29T14:06:38.486Z,1010.70
2017-10-29T14:08:39.981Z,1010.71
2017-10-29T14:10:41.556Z,1010.69
2017-10-29T14:12:43.036Z,1010.65
2017-10-29T14:14:44.560Z,1010.65
2017-10-29T14:16:46.059Z,1010.63
2017-10-29T14:18:47.632Z,1010.68
2017-10-29T14:20:49.140Z,1010.67
2017-10-29T14:22:50.635Z,1010.64
2017-10-29T14:24:52.188Z,1010.63
2017-10-29T14:26:53.699Z,1010.62
2017-10-29T14:28:55.205Z,1010.62
2017-10-29T14:31:37.611Z,1010.66
2017-10-29T14:33:39.025Z,1010.69
2017-10-29T14:35:40.442Z,1010.61
2017-10-29T14:37:41.866Z,1010.71
2017-10-29T14:39:43.286Z,1010.83
2017-10-29T14:41:44.756Z,1010.72
2017-10-29T14:43:46.204Z,1010.73
2017-10-29T14:45:47.678Z,1010.76
2017-10-29T14:48:30.137Z,1010.69
2017-10-29T14:50:31.611Z,1010.73
2017-10-29T14:52:33.024Z,1010.77
2017-10-29T14:54:34.532Z,1010.74
2017-10-29T14:56:36.136Z,1010.86
2017-10-29T14:58:37.559Z,1010.87
2017-10-29T15:00:39.056Z,1010.94
2017-10-29T15:02:40.528Z,1011.00
2017-10-29T15:05:22.939Z,1011.07
2017-10-29T15:07:24.363Z,1011.04
2017-10-29T15:09:26.061Z,1011.02
2017-10-29T15:11:27.482Z,1011.03
2017-10-29T15:13:28.896Z,1011.07
2017-10-29T15:15:30.398Z,1011.06
2017-10-29T15:17:32.272Z,1011.05
2017-10-29T15:19:33.760Z,1011.06
2017-10-29T15:21:35.266Z,1011.14
2017-10-29T15:23:36.760Z,1011.17
2017-10-29T15:25:38.252Z,1011.22
2017-10-29T15:27:39.786Z,1011.26
2017-10-29T15:29:41.340Z,1011.26
2017-10-29T15:31:42.829Z,1011.33
2017-10-29T15:33:44.327Z,1011.36
2017-10-29T15:36:26.044Z,1011.40
2017-10-29T15:38:27.581Z,1011.40
2017-10-29T15:40:29.567Z,1011.46
2017-10-29T15:42:30.983Z,1011.49
2017-10-29T15:44:32.429Z,1011.54
2017-10-29T15:46:33.938Z,1011.58
2017-10-29T15:48:35.481Z,1011.61
2017-10-29T15:50:36.980Z,1011.64
2017-10-29T15:52:38.499Z,1011.67
2017-10-29T15:54:40.009Z,1011.67
2017-10-29T15:56:41.549Z,1011.68
2017-10-29T15:58:42.999Z,1011.72
2017-10-29T16:00:44.448Z,1011.74
2017-10-29T16:02:46.039Z,1011.85
2017-10-29T16:04:47.573Z,1011.93
2017-10-29T16:07:30.036Z,1012.07
2017-10-29T16:09:31.446Z,1012.13
2017-10-29T16:11:32.858Z,1012.08
2017-10-29T16:13:34.276Z,1012.04
2017-10-29T16:15:35.702Z,1012.08
2017-10-29T16:17:37.101Z,1012.11
2017-10-29T16:19:38.521Z,1012.09
2017-10-29T16:21:40.143Z,1012.11
2017-10-29T16:23:41.908Z,1012.11
2017-10-29T16:25:43.806Z,1012.21
2017-10-29T16:27:45.474Z,1012.22
2017-10-29T16:29:46.984Z,1012.31
2017-10-29T16:31:48.500Z,1012.34
2017-10-29T16:33:50.401Z,1012.35
2017-10-29T16:35:52.058Z,1012.35
2017-10-29T16:38:34.665Z,1012.40
2017-10-29T16:40:36.116Z,1012.41
2017-10-29T16:42:37.526Z,1012.39
2017-10-29T16:44:38.957Z,1012.45
2017-10-29T16:46:40.370Z,1012.50
2017-10-29T16:48:42.410Z,1012.57
2017-10-29T16:50:43.859Z,1012.57
2017-10-29T16:52:45.282Z,1012.57
2017-10-29T16:55:27.687Z,1012.59
2017-10-29T16:57:29.107Z,1012.64
2017-10-29T16:59:30.593Z,1012.68
2017-10-29T17:01:32.574Z,1012.70
2017-10-29T17:03:34.022Z,1012.71
2017-10-29T17:05:35.436Z,1012.72
2017-10-29T17:07:36.849Z,1012.76
2017-10-29T17:09:38.281Z,1012.81
2017-10-29T17:11:39.862Z,1012.88
2017-10-29T17:13:41.366Z,1012.90
2017-10-29T17:15:42.858Z,1012.87
2017-10-29T17:17:44.406Z,1012.93
2017-10-29T17:19:45.960Z,1012.91
2017-10-29T17:21:47.424Z,1012.93
2017-10-29T17:23:48.932Z,1013.01
2017-10-29T17:25:50.424Z,1013.00
2017-10-29T17:27:51.972Z,1013.05
2017-10-29T17:29:53.480Z,1013.06
2017-10-29T17:31:55.012Z,1013.06
2017-10-29T17:33:56.803Z,1013.05
2017-10-29T17:35:58.335Z,1013.13
2017-10-29T17:37:59.840Z,1013.19
2017-10-29T17:40:01.369Z,1013.21
2017-10-29T17:42:42.889Z,1013.24
2017-10-29T17:44:44.328Z,1013.34
2017-10-29T17:46:46.097Z,1013.37
2017-10-29T17:48:47.588Z,1013.45
2017-10-29T17:50:48.997Z,1013.42
2017-10-29T17:52:50.407Z,1013.41
2017-10-29T17:54:51.888Z,1013.43
2017-10-29T17:56:53.420Z,1013.45
2017-10-29T17:59:34.854Z,1013.43
2017-10-29T18:01:36.312Z,1013.48
2017-10-29T18:03:37.854Z,1013.53
2017-10-29T18:05:39.340Z,1013.54
2017-10-29T18:07:40.741Z,1013.61
2017-10-29T18:09:42.194Z,1013.67
2017-10-29T18:11:43.672Z,1013.73
2017-10-29T18:13:45.191Z,1013.75
2017-10-29T18:15:47.044Z,1013.76
2017-10-29T18:17:48.854Z,1013.77
2017-10-29T18:19:50.407Z,1013.84
2017-10-29T18:21:51.886Z,1013.83
2017-10-29T18:23:53.409Z,1013.91
2017-10-29T18:25:54.973Z,1013.92
2017-10-29T18:27:56.537Z,1013.88
2017-10-29T18:30:39.052Z,1013.82
2017-10-29T18:32:40.464Z,1013.87
2017-10-29T18:34:41.936Z,1013.83
2017-10-29T18:36:43.340Z,1013.83
2017-10-29T18:38:44.768Z,1013.81
2017-10-29T18:40:46.204Z,1013.86
2017-10-29T18:42:47.617Z,1013.93
2017-10-29T18:44:49.073Z,1013.91
2017-10-29T18:47:31.805Z,1013.87
2017-10-29T18:49:33.254Z,1013.90
2017-10-29T18:51:34.658Z,1013.87
2017-10-29T18:53:36.070Z,1013.85
2017-10-29T18:55:37.485Z,1013.87
2017-10-29T18:57:38.895Z,1013.95
2017-10-29T18:59:40.305Z,1013.95
2017-10-29T19:02:22.835Z,1013.90
2017-10-29T19:04:24.244Z,1013.89
2017-10-29T19:06:25.709Z,1014.00
2017-10-29T19:08:27.249Z,1014.04
2017-10-29T19:10:28.754Z,1013.97
2017-10-29T19:12:30.186Z,1013.99
2017-10-29T19:14:31.786Z,1014.09
2017-10-29T19:16:33.672Z,1014.12
2017-10-29T19:18:35.329Z,1014.13
2017-10-29T19:20:37.178Z,1014.10
2017-10-29T19:22:38.686Z,1014.09
2017-10-29T19:24:40.168Z,1014.12
2017-10-29T19:26:41.722Z,1014.18
2017-10-29T19:28:43.274Z,1014.19
2017-10-29T19:30:44.785Z,1014.20
2017-10-29T19:33:27.273Z,1014.18
2017-10-29T19:35:28.680Z,1014.22
2017-10-29T19:37:30.269Z,1014.27
2017-10-29T19:39:31.677Z,1014.24
2017-10-29T19:41:33.100Z,1014.27
2017-10-29T19:43:34.566Z,1014.26
2017-10-29T19:45:36.081Z,1014.29
2017-10-29T19:47:37.549Z,1014.30
2017-10-29T19:50:19.982Z,1014.32
2017-10-29T19:52:21.381Z,1014.39
2017-10-29T19:54:22.813Z,1014.41
2017-10-29T19:56:24.778Z,1014.46
2017-10-29T19:58:26.204Z,1014.46
2017-10-29T20:00:27.619Z,1014.53
2017-10-29T20:02:29.034Z,1014.57
2017-10-29T20:05:11.436Z,1014.62
2017-10-29T20:07:12.861Z,1014.70
2017-10-29T20:09:14.306Z,1014.71
2017-10-29T20:11:15.692Z,1014.72
2017-10-29T20:13:17.169Z,1014.71
2017-10-29T20:15:18.661Z,1014.74
2017-10-29T20:17:20.143Z,1014.68
2017-10-29T20:19:21.667Z,1014.72
2017-10-29T20:21:23.233Z,1014.74
2017-10-29T20:23:24.749Z,1014.83
2017-10-29T20:25:26.323Z,1014.84
2017-10-29T20:27:27.747Z,1014.90
2017-10-29T20:29:29.181Z,1014.84
2017-10-29T20:31:30.596Z,1014.87
2017-10-29T20:33:32.028Z,1014.88
2017-10-29T20:35:33.541Z,1014.91
2017-10-29T20:38:16.218Z,1014.99
2017-10-29T20:40:17.612Z,1014.99
2017-10-29T20:42:19.027Z,1014.94
2017-10-29T20:44:20.664Z,1015.05
2017-10-29T20:46:22.069Z,1015.14
2017-10-29T20:48:23.519Z,1015.19
2017-10-29T20:50:24.945Z,1015.28
2017-10-29T20:53:07.824Z,1015.26
2017-10-29T20:55:09.240Z,1015.26
2017-10-29T20:57:10.681Z,1015.23
2017-10-29T20:59:12.133Z,1015.28
2017-10-29T21:01:13.587Z,1015.28
2017-10-29T21:03:15.263Z,1015.30
2017-10-29T21:05:16.811Z,1015.26
2017-10-29T21:07:18.464Z,1015.25
2017-10-29T21:09:19.919Z,1015.27
2017-10-29T21:11:21.713Z,1015.31
2017-10-29T21:13:23.667Z,1015.30
2017-10-29T21:15:25.502Z,1015.31
2017-10-29T21:17:27.386Z,1015.34
2017-10-29T21:19:29.235Z,1015.30
2017-10-29T21:21:30.745Z,1015.34
2017-10-29T21:23:32.265Z,1015.41
2017-10-29T21:26:15.161Z,1015.46
2017-10-29T21:28:16.797Z,1015.47
2017-10-29T21:30:18.204Z,1015.40
2017-10-29T21:32:19.655Z,1015.44
2017-10-29T21:34:21.114Z,1015.45
2017-10-29T21:36:22.537Z,1015.54
2017-10-29T21:38:24.033Z,1015.55
2017-10-29T21:41:06.812Z,1015.55
2017-10-29T21:43:08.214Z,1015.55
2017-10-29T21:45:09.680Z,1015.56
2017-10-29T21:47:11.098Z,1015.56
2017-10-29T21:49:12.565Z,1015.53
2017-10-29T21:51:14.002Z,1015.55
2017-10-29T21:53:15.487Z,1015.55
2017-10-29T21:55:16.974Z,1015.56
2017-10-29T21:57:59.685Z,1015.54
2017-10-29T22:00:01.105Z,1015.51
2017-10-29T22:02:02.514Z,1015.54
2017-10-29T22:04:03.934Z,1015.53
2017-10-29T22:06:05.373Z,1015.54
2017-10-29T22:08:06.790Z,1015.56
2017-10-29T22:10:08.196Z,1015.60
2017-10-29T22:12:09.621Z,1015.60
2017-10-29T22:14:11.076Z,1015.57
2017-10-29T22:16:12.617Z,1015.54
2017-10-29T22:18:14.117Z,1015.52
2017-10-29T22:20:15.629Z,1015.54
2017-10-29T22:22:17.174Z,1015.54
2017-10-29T22:24:18.699Z,1015.58
2017-10-29T22:26:20.221Z,1015.62
2017-10-29T22:29:02.005Z,1015.57
2017-10-29T22:31:03.483Z,1015.49
2017-10-29T22:33:05.529Z,1015.56
2017-10-29T22:35:06.934Z,1015.62
2017-10-29T22:37:08.346Z,1015.63
2017-10-29T22:39:09.769Z,1015.73
2017-10-29T22:41:11.380Z,1015.71
2017-10-29T22:43:53.783Z,1015.71
2017-10-29T22:45:55.197Z,1015.74
2017-10-29T22:47:56.607Z,1015.79
2017-10-29T22:49:58.016Z,1015.75
2017-10-29T22:51:59.457Z,1015.76
2017-10-29T22:54:00.952Z,1015.81
2017-10-29T22:56:02.693Z,1015.83
2017-10-29T22:58:04.125Z,1015.81
2017-10-29T23:00:45.843Z,1015.81
2017-10-29T23:02:47.280Z,1015.80
2017-10-29T23:04:48.704Z,1015.74
2017-10-29T23:06:50.150Z,1015.70
2017-10-29T23:08:51.729Z,1015.67
2017-10-29T23:10:53.146Z,1015.71
2017-10-29T23:12:54.614Z,1015.72
2017-10-29T23:14:56.129Z,1015.75
2017-10-29T23:16:57.636Z,1015.78
2017-10-29T23:18:59.148Z,1015.83
2017-10-29T23:21:00.691Z,1015.86
2017-10-29T23:23:02.237Z,1015.88
2017-10-29T23:25:03.756Z,1015.84
2017-10-29T23:27:05.263Z,1015.90
2017-10-29T23:29:06.834Z,1015.88
2017-10-29T23:31:49.237Z,1015.97
2017-10-29T23:33:50.645Z,1015.97
2017-10-29T23:35:52.050Z,1016.05
2017-10-29T23:37:53.465Z,1016.00
2017-10-29T23:39:54.882Z,1016.01
2017-10-29T23:41:56.963Z,1016.07
2017-10-29T23:43:58.426Z,1016.08
2017-10-29T23:45:59.882Z,1016.08
2017-10-29T23:48:41.651Z,1016.13
2017-10-29T23:50:43.062Z,1016.16
2017-10-29T23:52:44.687Z,1016.14
2017-10-29T23:54:46.356Z,1016.14
2017-10-29T23:56:47.844Z,1016.16
2017-10-29T23:58:49.332Z,1016.16
